createdAt,value
2023-04-16T00:01:47.462Z,31.45
2023-04-16T00:06:12.595Z,32.13
2023-04-16T00:10:37.137Z,32.03
2023-04-16T00:15:02.525Z,26.60
2023-04-16T00:19:27.572Z,29.42
2023-04-16T00:23:51.902Z,31.23
2023-04-16T00:28:16.245Z,27.93
2023-04-16T00:32:41.670Z,28.67
2023-04-16T00:37:05.592Z,31.95
2023-04-16T00:41:29.683Z,30.90
2023-04-16T00:45:56.115Z,36.55
2023-04-16T00:50:22.367Z,29.75
2023-04-16T00:54:47.134Z,30.87
2023-04-16T00:59:11.504Z,29.02
2023-04-16T01:03:39.829Z,30.92
2023-04-16T01:08:05.606Z,31.83
2023-04-16T01:12:29.477Z,32.17
2023-04-16T01:16:53.687Z,32.47
2023-04-16T01:21:18.873Z,32.30
2023-04-16T01:25:42.956Z,35.07
2023-04-16T01:30:09.036Z,31.05
2023-04-16T01:34:49.341Z,31.90
2023-04-16T01:39:16.602Z,30.80
2023-04-16T01:43:41.298Z,34.25
2023-04-16T01:48:05.872Z,28.67
2023-04-16T01:52:30.208Z,30.17
2023-04-16T01:56:55.681Z,35.37
2023-04-16T02:01:20.175Z,30.80
2023-04-16T02:05:45.369Z,35.22
2023-04-16T02:10:10.790Z,36.23
2023-04-16T02:14:38.398Z,38.25
2023-04-16T02:19:02.455Z,37.67
2023-04-16T02:23:29.865Z,40.40
2023-04-16T02:27:55.938Z,38.53
2023-04-16T02:32:31.180Z,40.88
2023-04-16T02:36:58.346Z,40.17
2023-04-16T02:41:22.988Z,38.20
2023-04-16T02:45:46.948Z,33.67
2023-04-16T02:50:12.851Z,37.53
2023-04-16T02:54:36.841Z,36.73
2023-04-16T02:59:00.857Z,39.65
2023-04-16T03:03:25.427Z,35.63
2023-04-16T03:07:56.678Z,39.63
2023-04-16T03:12:20.911Z,37.22
2023-04-16T03:16:45.239Z,34.63
2023-04-16T03:21:09.207Z,35.67
2023-04-16T03:25:34.928Z,31.23
2023-04-16T03:29:59.225Z,34.60
2023-04-16T03:34:24.156Z,38.15
2023-04-16T03:38:48.203Z,38.60
2023-04-16T03:43:14.533Z,39.25
2023-04-16T03:47:40.697Z,38.38
2023-04-16T03:52:06.175Z,32.50
2023-04-16T03:56:30.615Z,36.13
2023-04-16T04:00:56.109Z,36.88
2023-04-16T04:05:21.109Z,35.10
2023-04-16T04:09:46.035Z,33.53
2023-04-16T04:14:10.426Z,33.33
2023-04-16T04:18:35.889Z,36.28
2023-04-16T04:23:02.426Z,36.77
2023-04-16T04:27:27.494Z,32.30
2023-04-16T04:31:51.655Z,37.85
2023-04-16T04:36:17.275Z,35.20
2023-04-16T04:40:41.557Z,34.25
2023-04-16T04:45:08.006Z,40.13
2023-04-16T04:49:33.218Z,36.20
2023-04-16T04:53:58.654Z,39.10
2023-04-16T04:58:22.567Z,35.95
2023-04-16T05:02:47.462Z,34.13
2023-04-16T05:07:11.658Z,32.10
2023-04-16T05:11:36.971Z,33.08
2023-04-16T05:16:01.155Z,29.85
2023-04-16T05:20:25.231Z,29.83
2023-04-16T05:24:49.216Z,25.70
2023-04-16T05:29:14.826Z,27.70
2023-04-16T05:33:38.981Z,26.20
2023-04-16T05:38:04.540Z,28.43
2023-04-16T05:42:28.704Z,32.75
2023-04-16T05:46:54.257Z,27.58
2023-04-16T05:51:18.065Z,31.60
2023-04-16T05:55:41.901Z,28.95
2023-04-16T06:00:07.040Z,28.08
2023-04-16T06:04:37.719Z,30.77
2023-04-16T06:09:01.965Z,29.98
2023-04-16T06:13:26.604Z,27.25
2023-04-16T06:17:51.224Z,26.17
2023-04-16T06:22:16.848Z,20.43
2023-04-16T06:26:42.504Z,21.63
2023-04-16T06:31:06.744Z,20.52
2023-04-16T06:35:30.920Z,18.93
2023-04-16T06:39:56.061Z,20.30
2023-04-16T06:44:22.995Z,15.75
2023-04-16T06:48:47.130Z,14.27
2023-04-16T06:53:11.221Z,16.33
2023-04-16T06:57:37.574Z,14.98
2023-04-16T07:02:02.008Z,13.75
2023-04-16T07:06:27.126Z,14.73
2023-04-16T07:10:51.716Z,12.23
2023-04-16T07:15:17.523Z,11.30
2023-04-16T07:19:41.588Z,12.83
2023-04-16T07:24:05.687Z,12.45
2023-04-16T07:28:30.088Z,13.93
2023-04-16T07:32:55.943Z,14.70
2023-04-16T07:37:19.949Z,12.93
2023-04-16T07:41:45.107Z,11.93
2023-04-16T07:46:09.085Z,12.70
2023-04-16T07:50:34.560Z,13.00
2023-04-16T07:54:58.505Z,13.30
2023-04-16T07:59:23.909Z,11.25
2023-04-16T08:03:48.677Z,12.07
2023-04-16T08:08:13.954Z,11.93
2023-04-16T08:12:38.115Z,11.93
2023-04-16T08:17:02.032Z,11.00
2023-04-16T08:21:26.172Z,10.35
2023-04-16T08:25:57.454Z,11.20
2023-04-16T08:30:21.999Z,16.73
2023-04-16T08:34:46.181Z,12.83
2023-04-16T08:39:10.418Z,13.30
2023-04-16T08:43:39.856Z,13.30
2023-04-16T08:48:06.851Z,14.50
2023-04-16T08:52:32.776Z,14.18
2023-04-16T08:56:58.969Z,11.35
2023-04-16T09:01:26.620Z,11.77
2023-04-16T09:05:51.630Z,9.98
2023-04-16T09:10:16.392Z,11.57
2023-04-16T09:14:41.985Z,11.65
2023-04-16T09:19:07.555Z,12.03
2023-04-16T09:23:31.838Z,8.95
2023-04-16T09:27:55.787Z,8.35
2023-04-16T09:32:25.897Z,9.90
2023-04-16T09:36:51.507Z,9.90
2023-04-16T09:41:17.281Z,10.50
2023-04-16T09:45:51.853Z,12.63
2023-04-16T09:50:18.818Z,13.02
2023-04-16T09:54:49.715Z,12.50
2023-04-16T09:59:18.735Z,14.00
2023-04-16T10:03:43.349Z,12.73
2023-04-16T10:08:14.063Z,15.18
2023-04-16T10:12:39.451Z,13.95
2023-04-16T10:17:04.631Z,13.63
2023-04-16T10:21:33.884Z,12.77
2023-04-16T10:26:00.466Z,15.40
2023-04-16T10:30:26.919Z,19.27
2023-04-16T10:34:51.075Z,19.63
2023-04-16T10:39:18.756Z,20.23
2023-04-16T10:43:44.542Z,19.67
2023-04-16T10:48:11.816Z,22.30
2023-04-16T10:52:35.547Z,21.15
2023-04-16T10:57:02.984Z,19.20
2023-04-16T11:01:34.018Z,21.10
2023-04-16T11:06:11.935Z,20.35
2023-04-16T11:10:40.636Z,17.23
2023-04-16T11:15:06.763Z,15.33
2023-04-16T11:19:30.706Z,13.95
2023-04-16T11:23:56.856Z,14.57
2023-04-16T11:28:20.912Z,14.25
2023-04-16T11:32:46.130Z,15.03
2023-04-16T11:37:10.789Z,12.30
2023-04-16T11:41:36.082Z,12.88
2023-04-16T11:46:02.697Z,12.17
2023-04-16T11:50:30.193Z,13.13
2023-04-16T11:54:54.420Z,12.05
2023-04-16T11:59:22.797Z,13.47
2023-04-16T12:03:49.751Z,12.13
2023-04-16T12:08:14.438Z,12.18
2023-04-16T12:12:38.470Z,11.75
2023-04-16T12:17:22.868Z,11.23
2023-04-16T12:21:48.636Z,11.30
2023-04-16T12:26:12.599Z,11.23
2023-04-16T12:30:51.486Z,10.27
2023-04-16T12:35:32.689Z,9.55
2023-04-16T12:39:56.759Z,8.98
2023-04-16T12:44:20.817Z,9.73
2023-04-16T12:48:44.659Z,9.18
2023-04-16T12:53:11.522Z,9.63
2023-04-16T12:57:35.353Z,9.52
2023-04-16T13:01:59.353Z,10.87
2023-04-16T13:06:23.280Z,10.15
2023-04-16T13:10:48.574Z,12.05
2023-04-16T13:15:14.011Z,11.07
2023-04-16T13:19:37.931Z,12.40
2023-04-16T13:24:01.772Z,13.57
2023-04-16T13:28:27.530Z,13.37
2023-04-16T13:32:51.805Z,15.98
2023-04-16T13:37:15.873Z,15.70
2023-04-16T13:41:40.231Z,15.38
2023-04-16T13:46:06.188Z,13.23
2023-04-16T13:50:30.500Z,15.20
2023-04-16T13:54:54.571Z,15.05
2023-04-16T13:59:18.741Z,15.53
2023-04-16T14:03:44.459Z,15.48
2023-04-16T14:08:08.710Z,16.45
2023-04-16T14:12:33.189Z,16.00
2023-04-16T14:17:00.148Z,16.05
2023-04-16T14:21:27.132Z,16.52
2023-04-16T14:25:51.328Z,15.88
2023-04-16T14:30:16.610Z,16.67
2023-04-16T14:34:40.566Z,15.05
2023-04-16T14:39:07.466Z,16.00
2023-04-16T14:43:33.360Z,16.10
2023-04-16T14:47:57.375Z,15.15
2023-04-16T14:52:21.512Z,18.30
2023-04-16T14:56:47.440Z,15.83
2023-04-16T15:01:19.091Z,16.75
2023-04-16T15:05:43.471Z,19.25
2023-04-16T15:10:08.828Z,17.73
2023-04-16T15:14:36.460Z,16.93
2023-04-16T15:19:00.920Z,16.95
2023-04-16T15:23:25.784Z,17.13
2023-04-16T15:27:50.551Z,16.50
2023-04-16T15:32:16.308Z,16.38
2023-04-16T15:36:40.663Z,16.08
2023-04-16T15:41:00.960Z,15.80
2023-04-16T15:45:24.960Z,16.10
2023-04-16T15:49:50.296Z,16.05
2023-04-16T15:54:18.571Z,15.32
2023-04-16T15:58:42.583Z,15.70
2023-04-16T16:03:06.839Z,17.67
2023-04-16T16:07:32.729Z,16.90
2023-04-16T16:11:58.865Z,14.97
2023-04-16T16:16:25.687Z,16.75
2023-04-16T16:20:51.880Z,15.30
2023-04-16T16:25:17.305Z,16.03
2023-04-16T16:29:41.453Z,16.60
2023-04-16T16:34:05.687Z,17.30
2023-04-16T16:38:29.915Z,17.77
2023-04-16T16:42:55.733Z,14.63
2023-04-16T16:47:19.762Z,14.63
2023-04-16T16:51:45.954Z,17.40
2023-04-16T16:56:09.786Z,16.40
2023-04-16T17:00:35.380Z,15.88
2023-04-16T17:05:00.165Z,16.27
2023-04-16T17:09:24.189Z,16.77
2023-04-16T17:13:48.441Z,14.85
2023-04-16T17:18:13.912Z,16.55
2023-04-16T17:22:38.744Z,16.05
2023-04-16T17:27:03.307Z,14.10
2023-04-16T17:31:27.843Z,14.18
2023-04-16T17:35:53.238Z,17.55
2023-04-16T17:40:18.472Z,15.93
2023-04-16T17:44:43.358Z,16.50
2023-04-16T17:49:07.357Z,17.45
2023-04-16T17:53:32.622Z,18.73
2023-04-16T17:57:56.572Z,17.90
2023-04-16T18:02:21.087Z,18.13
2023-04-16T18:06:45.284Z,19.88
2023-04-16T18:11:10.589Z,21.33
2023-04-16T18:15:37.962Z,21.85
2023-04-16T18:20:02.417Z,19.45
2023-04-16T18:24:26.405Z,18.17
2023-04-16T18:28:51.850Z,20.15
2023-04-16T18:38:01.012Z,19.30
2023-04-16T18:42:45.083Z,22.05
2023-04-16T18:47:31.113Z,22.70
2023-04-16T18:52:15.264Z,23.38
2023-04-16T18:57:00.807Z,24.33
2023-04-16T19:01:45.500Z,26.58
2023-04-16T19:06:32.261Z,27.50
2023-04-16T19:11:16.372Z,24.00
2023-04-16T19:16:01.718Z,22.98
2023-04-16T19:20:46.160Z,24.45
2023-04-16T19:25:31.590Z,24.43
2023-04-16T19:30:15.925Z,22.58
2023-04-16T19:34:54.356Z,22.75
2023-04-16T19:39:33.711Z,24.65
2023-04-16T19:44:19.405Z,24.67
2023-04-16T19:49:03.478Z,25.45
2023-04-16T19:53:47.661Z,24.17
2023-04-16T19:58:31.883Z,26.47
2023-04-16T20:03:17.519Z,26.95
2023-04-16T20:08:02.103Z,27.42
2023-04-16T20:12:46.328Z,25.60
2023-04-16T20:17:30.623Z,25.88
2023-04-16T20:22:18.265Z,24.25
2023-04-16T20:27:02.627Z,23.80
2023-04-16T20:31:46.934Z,25.33
2023-04-16T20:36:31.884Z,21.50
2023-04-16T20:41:21.364Z,22.35
2023-04-16T20:46:06.187Z,20.57
2023-04-16T20:50:50.367Z,22.33
2023-04-16T20:55:34.506Z,21.30
2023-04-16T21:00:20.616Z,20.80
2023-04-16T21:05:05.537Z,20.95
2023-04-16T21:09:50.172Z,20.45
2023-04-16T21:14:34.417Z,21.63
2023-04-16T21:19:20.245Z,22.03
2023-04-16T21:24:04.473Z,23.80
2023-04-16T21:28:48.774Z,22.55
2023-04-16T21:33:33.051Z,21.67
2023-04-16T21:38:19.223Z,19.98
2023-04-16T21:43:03.442Z,17.48
2023-04-16T21:47:47.545Z,16.97
2023-04-16T21:52:32.915Z,16.55
2023-04-16T21:57:18.753Z,16.35
2023-04-16T22:02:03.069Z,17.00
2023-04-16T22:06:47.312Z,15.50
2023-04-16T22:11:31.713Z,15.60
2023-04-16T22:16:17.091Z,15.20
2023-04-16T22:21:01.518Z,16.47
2023-04-16T22:25:45.777Z,15.45
2023-04-16T22:30:29.981Z,15.52
2023-04-16T22:35:15.982Z,17.27
2023-04-16T22:40:00.277Z,14.93
2023-04-16T22:44:44.391Z,15.10
2023-04-16T22:49:33.022Z,16.88
2023-04-16T22:54:18.543Z,15.00
2023-04-16T22:59:02.685Z,14.93
2023-04-16T23:03:46.885Z,16.80
2023-04-16T23:08:33.021Z,15.77
2023-04-16T23:13:18.562Z,17.33
2023-04-16T23:18:02.671Z,17.17
2023-04-16T23:22:47.086Z,18.57
2023-04-16T23:27:34.140Z,19.83
2023-04-16T23:32:19.720Z,18.08
2023-04-16T23:37:03.853Z,19.40
2023-04-16T23:41:48.003Z,19.03
2023-04-16T23:46:32.217Z,20.20
2023-04-16T23:51:17.971Z,20.77
2023-04-16T23:56:04.844Z,20.70
